AirNav   Air Wisconsin Up To $57,000 Bonus
 
 567 users online  

0FD2 Dolphin Stadium Heliport
Miami, Florida, USA

GOING TO MIAMI?


FAA INFORMATION EFFECTIVE 25 FEBRUARY 2021

Location

FAA Identifier: 0FD2
Lat/Long: 25-57-35.3320N 080-14-13.1740W
25-57.588867N 080-14.219567W
25.9598144,-80.2369928
(estimated)
Elevation: 8 ft. / 2 m (estimated)
Variation: 03W (1985)
From city: 9 miles SW of MIAMI, FL
Time zone: UTC -5 (UTC -4 during Daylight Saving Time)
Zip code: 33056

Heliport Operations

Heliport use: Private use. Permission required prior to landing
Activation date: 01/1990
Control tower: no
ARTCC: MIAMI CENTER
FSS: MIAMI FLIGHT SERVICE STATION
Attendance: IREG IREG IREG
Wind indicator: yes
Segmented circle: no

Heliport Communications

WX ASOS at HWO (2.5 nm N): PHONE 954-983-5904
WX ASOS at OPF (4 nm SW): 125.9 (305-681-4063)
WX ASOS at FLL (8 nm NE): 135.0 (954-359-7857)
WX ASOS at MIA (10 nm S): 119.15 (305-870-0235)
WX ASOS at FXE (15 nm N): 119.85 (954-772-2537)
WX ASOS at PMP (19 nm N): 120.55 (954-783-3720)

Nearby radio navigation aids

VOR radial/distance  VOR name  Freq  Var
FLLr215/7.8FORT LAUDERDALE VOR/DME114.4006W
DHPr036/11.3DOLPHIN VORTAC113.9004W
VKZr344/13.2VIRGINIA KEY VOR/DME117.1004W

Heliport Services

Runway Information

Helipad H1

Dimensions: 48 x 48 ft. / 15 x 15 m
Surface: concrete
Latitude: 25-57.588867N
Longitude: 080-14.219567W
Elevation: 8.0 ft.
Traffic pattern: leftleft

Heliport Ownership and Management from official FAA records

Ownership: Privately-owned
Owner: WAYNE HUIZENGA
HUIZENGA HOLDINGS INC, 200 S ANDREWS AVE 5TH FLOOR
FT LAUDERDALE, FL 33301
Phone 954-627-5000
Manager: WILLIAM LOWRY
2269 NW 199TH ST
MIAMI, FL 33659
Phone 305-626-7320

Additional Remarks

FOR CD CTC MIAMI APCH AT 305-869-5432.

Instrument Procedures

There are no published instrument procedures at 0FD2.

Some nearby airports with instrument procedures:

KHWO - North Perry Airport (2 nm N)
KOPF - Miami-Opa LockaExecutive Airport (4 nm SW)
KFLL - Fort Lauderdale/Hollywood International Airport (8 nm NE)
KMIA - Miami International Airport (10 nm S)
KFXE - Fort LauderdaleExecutive Airport (15 nm N)
KPMP - Pompano Beach Airpark (19 nm N)
 
Loc | Ops | Rwys | IFR | FBO | Links
Com | Nav | Svcs | Stats | Notes


 
Area around 0FD2 (Dolphin Stadium Heliport)
 
Road maps at: MapQuest Bing Google
 
Aerial photo
No photo
 
Sectional chart

 
Airport distance calculator
Flying to Dolphin Stadium Heliport? Find the distance to fly.

From to 0FD2

Sunrise and sunset
Times for 01-Mar-2021
 Local
(UTC-5)
 Zulu
(UTC)
Morning civil twilight06:2211:22
Sunrise06:4511:45
Sunset18:2123:21
Evening civil twilight18:4523:45

Current date and time
Zulu (UTC)  01-Mar-2021 12:35:15
Local (UTC-5)  01-Mar-2021 07:35:15
 
METAR
KHWO 
2nm N 
011153Z 14004KT 10SM CLR 23/20 A3011 RMK AO2 SLP195 T02280200 10239 20228 53008 $
KOPF 
4nm SW 
011153Z 16005KT 10SM FEW021 23/20 A3010 RMK AO2 SLP193 T02280200 10239 20222 53007 $
KFLL 
8nm NE 
011153Z 15008KT 10SM SCT026 SCT090 24/21 A3009 RMK AO2 SLP188 T02390211 10239 20239 53008 $
KMIA 
11nm S 
011153Z 14006KT 10SM SCT027 24/21 A3009 RMK AO2 SLP190 T02390206 10250 20239 53006 $
KFXE 
15nm N 
011153Z 14005KT 10SM FEW026 24/21 A3009 RMK AO2 SLP192 T02390206 10244 20239 53009
KPMP 
19nm N 
011153Z 16010KT 8SM FEW030 24/21 A3009 RMK AO2 SLP191 70001 T02390211 10244 20239 53009
TAF
KOPF 
4nm SW 
010304Z 0103/0124 12011KT P6SM SCT030 BKN040 FM011400 16012KT P6SM SCT030 BKN050
KFLL 
8nm NE 
010520Z 0106/0212 12010KT P6SM SCT020 BKN050 FM011400 16012KT P6SM SCT030 BKN050 FM020000 17005KT P6SM SCT030
KMIA 
11nm S 
010304Z 0103/0206 12010KT P6SM SCT030 BKN040 FM011400 16012KT P6SM SCT030 BKN050 FM020200 15006KT P6SM SCT030
KFXE 
15nm N 
010520Z 0106/0206 12011KT P6SM SCT020 BKN050 FM011400 15012KT P6SM SCT030 BKN050 FM020000 15005KT P6SM SCT025
NOTAMs
Click for the latest NOTAMs
NOTAMs are issued by the DoD/FAA and will open in a separate window not controlled by AirNav.

 

 
 

Would you like to see your business listed on this page?

 If your business provides an interesting product or service to pilots, flight crews, aircraft, or users of the Dolphin Stadium Heliport, you should consider listing it here.  To start the listing process, click on the button below
 
Add a business
 

Other Pages about Dolphin Stadium Heliport

Update a link
 
Copyright © AirNav, LLC. All rights reserved. Privacy Policy  Contact